createdAt,value
2019-04-09T00:02:28.188Z,8.30
2019-04-09T00:04:57.679Z,8.30
2019-04-09T00:07:26.516Z,8.20
2019-04-09T00:09:56.095Z,8.20
2019-04-09T00:12:25.750Z,8.20
2019-04-09T00:14:58.601Z,8.10
2019-04-09T00:17:27.997Z,8.10
2019-04-09T00:19:57.597Z,8.10
2019-04-09T00:22:26.947Z,8.10
2019-04-09T00:24:57.424Z,8.00
2019-04-09T00:27:26.864Z,8.00
2019-04-09T00:29:56.055Z,8.00
2019-04-09T00:32:26.190Z,7.90
2019-04-09T00:34:58.724Z,7.90
2019-04-09T00:37:28.222Z,7.90
2019-04-09T00:39:57.808Z,7.80
2019-04-09T00:42:27.247Z,7.80
2019-04-09T00:44:57.443Z,7.80
2019-04-09T00:47:27.033Z,7.70
2019-04-09T00:49:56.546Z,7.70
2019-04-09T00:52:26.517Z,7.70
2019-04-09T00:54:56.387Z,7.60
2019-04-09T00:57:26.936Z,7.60
2019-04-09T00:59:57.032Z,7.50
2019-04-09T01:02:26.731Z,7.50
2019-04-09T01:04:56.930Z,7.50
2019-04-09T01:07:26.806Z,7.40
2019-04-09T01:09:56.167Z,7.40
2019-04-09T01:12:26.189Z,7.30
2019-04-09T01:14:57.507Z,7.30
2019-04-09T01:17:27.487Z,7.30
2019-04-09T01:19:56.992Z,7.20
2019-04-09T01:22:26.524Z,7.20
2019-04-09T01:25:24.714Z,7.20
2019-04-09T01:27:55.521Z,7.20
2019-04-09T01:30:34.203Z,7.10
2019-04-09T01:33:20.404Z,7.10
2019-04-09T01:35:59.848Z,7.10
2019-04-09T01:38:42.752Z,7.10
2019-04-09T01:41:34.009Z,7.00
2019-04-09T01:44:19.305Z,7.00
2019-04-09T01:47:13.885Z,7.00
2019-04-09T01:50:01.268Z,6.90
2019-04-09T01:52:49.626Z,6.90
2019-04-09T01:55:37.694Z,6.90
2019-04-09T01:58:16.844Z,6.90
2019-04-09T02:01:08.010Z,6.80
2019-04-09T02:03:56.033Z,6.80
2019-04-09T02:06:43.360Z,6.70
2019-04-09T02:09:31.813Z,6.70
2019-04-09T02:12:18.683Z,6.60
2019-04-09T02:15:10.483Z,6.60
2019-04-09T02:17:57.952Z,6.60
2019-04-09T02:20:45.753Z,6.50
2019-04-09T02:23:25.597Z,6.50
2019-04-09T02:26:12.663Z,6.40
2019-04-09T02:29:14.351Z,6.40
2019-04-09T02:32:09.616Z,6.40
2019-04-09T02:35:04.996Z,6.30
2019-04-09T02:37:54.774Z,6.30
2019-04-09T02:41:01.398Z,6.30
2019-04-09T02:43:50.107Z,6.20
2019-04-09T02:46:38.570Z,6.20
2019-04-09T02:49:26.925Z,6.20
2019-04-09T02:52:01.663Z,6.10
2019-04-09T02:54:50.018Z,6.10
2019-04-09T02:57:49.112Z,6.10
2019-04-09T03:00:40.434Z,6.00
2019-04-09T03:03:27.758Z,6.00
2019-04-09T03:06:09.644Z,5.90
2019-04-09T03:09:01.999Z,5.90
2019-04-09T03:11:58.459Z,5.80
2019-04-09T03:14:46.870Z,5.80
2019-04-09T03:17:38.018Z,5.70
2019-04-09T03:20:15.033Z,5.70
2019-04-09T03:23:11.233Z,5.60
2019-04-09T03:26:17.810Z,5.60
2019-04-09T03:29:06.057Z,5.50
2019-04-09T03:31:51.914Z,5.50
2019-04-09T03:34:47.513Z,5.40
2019-04-09T03:37:26.525Z,5.40
2019-04-09T03:40:14.994Z,5.40
2019-04-09T03:43:02.100Z,5.30
2019-04-09T03:45:53.505Z,5.30
2019-04-09T03:48:44.734Z,5.20
2019-04-09T03:51:33.392Z,5.20
2019-04-09T03:54:14.541Z,5.10
2019-04-09T03:57:03.461Z,5.10
2019-04-09T03:59:47.799Z,5.00
2019-04-09T04:02:45.387Z,5.00
2019-04-09T04:05:32.256Z,5.00
2019-04-09T04:08:20.782Z,4.90
2019-04-09T04:11:18.957Z,4.90
2019-04-09T04:14:19.097Z,4.80
2019-04-09T04:17:06.261Z,4.80
2019-04-09T04:19:54.629Z,4.80
2019-04-09T04:22:37.702Z,4.70
2019-04-09T04:25:26.570Z,4.60
2019-04-09T04:28:07.206Z,4.60
2019-04-09T04:30:54.934Z,4.60
2019-04-09T04:33:37.019Z,4.50
2019-04-09T04:36:23.155Z,4.50
2019-04-09T04:39:16.549Z,4.50
2019-04-09T04:42:05.490Z,4.40
2019-04-09T04:44:48.962Z,4.40
2019-04-09T04:47:36.014Z,4.40
2019-04-09T04:50:29.638Z,4.30
2019-04-09T04:53:12.598Z,4.30
2019-04-09T04:56:07.800Z,4.30
2019-04-09T04:58:52.012Z,4.20
2019-04-09T05:01:38.614Z,4.20
2019-04-09T05:04:27.411Z,4.20
2019-04-09T05:07:19.298Z,4.20
2019-04-09T05:10:06.330Z,4.20
2019-04-09T05:12:56.047Z,4.20
2019-04-09T05:15:50.445Z,4.20
2019-04-09T05:18:47.781Z,4.30
2019-04-09T05:21:34.624Z,4.40
2019-04-09T05:24:21.365Z,4.40
2019-04-09T05:27:06.664Z,4.50
2019-04-09T05:29:44.292Z,4.60
2019-04-09T05:32:29.838Z,4.60
2019-04-09T05:35:16.694Z,4.70
2019-04-09T05:38:03.494Z,4.80
2019-04-09T05:40:51.802Z,4.80
2019-04-09T05:43:46.186Z,4.90
2019-04-09T05:46:23.754Z,5.00
2019-04-09T05:49:13.841Z,5.00
2019-04-09T05:52:00.110Z,5.00
2019-04-09T05:54:49.576Z,5.10
2019-04-09T05:57:31.254Z,5.10
2019-04-09T06:00:10.407Z,5.30
2019-04-09T06:02:56.919Z,5.40
2019-04-09T06:05:34.097Z,5.50
2019-04-09T06:08:31.834Z,5.70
2019-04-09T06:11:01.405Z,5.80
2019-04-09T06:13:30.732Z,5.90
2019-04-09T06:16:00.103Z,6.10
2019-04-09T06:18:30.157Z,6.30
2019-04-09T06:21:00.238Z,6.40
2019-04-09T06:23:30.050Z,6.50
2019-04-09T06:26:00.099Z,6.60
2019-04-09T06:28:30.360Z,6.70
2019-04-09T06:31:00.099Z,6.70
2019-04-09T06:33:55.139Z,6.90
2019-04-09T06:36:37.526Z,7.10
2019-04-09T06:39:19.058Z,7.50
2019-04-09T06:42:00.411Z,7.80
2019-04-09T06:44:49.017Z,7.70
2019-04-09T06:47:48.917Z,7.90
2019-04-09T06:50:41.005Z,8.20
2019-04-09T06:53:28.971Z,8.20
2019-04-09T06:56:11.481Z,8.10
2019-04-09T06:59:09.223Z,8.00
2019-04-09T07:02:01.527Z,8.20
2019-04-09T07:04:48.645Z,8.40
2019-04-09T07:07:26.095Z,8.90
2019-04-09T07:10:29.995Z,9.00
2019-04-09T07:13:21.814Z,9.60
2019-04-09T07:16:11.583Z,10.10
2019-04-09T07:19:08.351Z,10.30
2019-04-09T07:21:55.538Z,10.50
2019-04-09T07:24:56.344Z,10.70
2019-04-09T07:27:45.279Z,10.70
2019-04-09T07:30:32.819Z,10.40
2019-04-09T07:33:17.410Z,10.40
2019-04-09T07:36:10.950Z,10.30
2019-04-09T07:38:59.292Z,9.70
2019-04-09T07:41:48.718Z,9.40
2019-04-09T07:44:29.624Z,9.20
2019-04-09T07:47:34.743Z,9.40
2019-04-09T07:50:23.955Z,9.30
2019-04-09T07:53:23.048Z,9.50
2019-04-09T07:56:31.413Z,9.80
2019-04-09T07:59:27.211Z,10.10
2019-04-09T08:02:17.230Z,10.30
2019-04-09T08:05:13.972Z,10.40
2019-04-09T08:08:03.409Z,10.60
2019-04-09T08:10:56.610Z,11.00
2019-04-09T08:13:43.679Z,11.40
2019-04-09T08:16:42.250Z,11.60
2019-04-09T08:19:30.257Z,11.90
2019-04-09T08:22:08.873Z,12.10
2019-04-09T08:25:00.364Z,12.20
2019-04-09T08:27:53.044Z,12.60
2019-04-09T08:30:45.625Z,12.60
2019-04-09T08:33:53.985Z,12.60
2019-04-09T08:36:57.515Z,13.00
2019-04-09T08:39:51.682Z,13.10
2019-04-09T08:42:48.747Z,13.20
2019-04-09T08:45:55.597Z,13.10
2019-04-09T08:48:53.807Z,13.30
2019-04-09T08:51:47.564Z,13.30
2019-04-09T08:54:36.058Z,13.40
2019-04-09T08:57:27.302Z,13.40
2019-04-09T09:00:57.383Z,13.40
2019-04-09T09:03:10.757Z,13.40
2019-04-09T09:06:14.493Z,13.30
2019-04-09T09:09:10.036Z,13.70
2019-04-09T09:11:53.825Z,14.00
2019-04-09T09:14:38.573Z,13.90
2019-04-09T09:17:30.785Z,14.30
2019-04-09T09:20:22.818Z,14.40
2019-04-09T09:23:19.933Z,14.70
2019-04-09T09:26:03.404Z,14.60
2019-04-09T09:28:50.706Z,14.50
2019-04-09T09:31:45.357Z,14.90
2019-04-09T09:34:41.510Z,14.60
2019-04-09T09:37:26.362Z,14.80
2019-04-09T09:40:20.561Z,14.70
2019-04-09T09:43:05.627Z,14.60
2019-04-09T09:46:02.134Z,14.50
2019-04-09T09:48:41.540Z,14.70
2019-04-09T09:51:50.057Z,14.90
2019-04-09T09:54:50.615Z,15.20
2019-04-09T09:57:54.493Z,15.30
2019-04-09T10:00:42.803Z,15.40
2019-04-09T10:03:17.473Z,15.40
2019-04-09T10:06:13.754Z,15.50
2019-04-09T10:08:52.171Z,15.20
2019-04-09T10:11:40.603Z,15.20
2019-04-09T10:14:32.912Z,15.00
2019-04-09T10:17:30.371Z,14.90
2019-04-09T10:20:13.886Z,14.70
2019-04-09T10:23:05.199Z,14.90
2019-04-09T10:25:50.340Z,15.00
2019-04-09T10:28:34.432Z,15.00
2019-04-09T10:31:30.598Z,14.80
2019-04-09T10:34:30.277Z,15.00
2019-04-09T10:37:17.594Z,14.60
2019-04-09T10:40:13.890Z,14.80
2019-04-09T10:42:59.299Z,15.10
2019-04-09T10:45:47.024Z,14.60
2019-04-09T10:48:43.856Z,15.00
2019-04-09T10:51:29.413Z,15.30
2019-04-09T10:54:23.810Z,15.40
2019-04-09T10:57:21.061Z,15.60
2019-04-09T11:00:07.522Z,15.50
2019-04-09T11:02:55.714Z,15.60
2019-04-09T11:05:45.270Z,15.80
2019-04-09T11:08:23.307Z,15.60
2019-04-09T11:11:04.642Z,15.60
2019-04-09T11:13:56.649Z,15.40
2019-04-09T11:16:33.919Z,15.70
2019-04-09T11:19:37.503Z,15.80
2019-04-09T11:22:21.221Z,15.90
2019-04-09T11:25:14.464Z,15.90
2019-04-09T11:28:04.275Z,15.30
2019-04-09T11:31:04.207Z,14.50
2019-04-09T11:33:48.732Z,14.00
2019-04-09T11:36:49.598Z,13.90
2019-04-09T11:39:52.761Z,14.40
2019-04-09T11:42:37.078Z,14.90
2019-04-09T11:45:39.755Z,15.00
2019-04-09T11:48:27.729Z,15.40
2019-04-09T11:51:23.639Z,15.60
2019-04-09T11:54:27.158Z,15.70
2019-04-09T11:57:18.529Z,15.60
2019-04-09T11:59:55.790Z,15.80
2019-04-09T12:02:42.292Z,15.40
2019-04-09T12:05:29.325Z,15.50
2019-04-09T12:08:15.522Z,15.50
2019-04-09T12:10:50.471Z,15.70
2019-04-09T12:13:31.069Z,15.50
2019-04-09T12:16:19.496Z,15.40
2019-04-09T12:19:02.374Z,15.30
2019-04-09T12:21:51.135Z,15.70
2019-04-09T12:24:39.701Z,15.60
2019-04-09T12:27:18.177Z,16.00
2019-04-09T12:30:01.890Z,16.40
2019-04-09T12:32:56.456Z,16.70
2019-04-09T12:35:44.401Z,16.90
2019-04-09T12:38:27.869Z,16.60
2019-04-09T12:41:22.138Z,16.20
2019-04-09T12:44:03.742Z,16.20
2019-04-09T12:46:51.790Z,16.50
2019-04-09T12:49:49.618Z,17.30
2019-04-09T12:52:38.587Z,16.60
2019-04-09T12:55:23.876Z,16.70
2019-04-09T12:58:12.467Z,16.30
2019-04-09T13:00:50.627Z,16.60
2019-04-09T13:03:49.298Z,16.90
2019-04-09T13:06:36.294Z,17.00
2019-04-09T13:09:26.642Z,17.00
2019-04-09T13:12:13.709Z,17.30
2019-04-09T13:15:08.469Z,17.50
2019-04-09T13:18:00.509Z,17.70
2019-04-09T13:20:46.390Z,17.70
2019-04-09T13:23:39.129Z,17.70
2019-04-09T13:26:34.133Z,17.50
2019-04-09T13:29:14.596Z,17.50
2019-04-09T13:31:54.874Z,17.50
2019-04-09T13:34:49.958Z,17.90
2019-04-09T13:37:41.420Z,18.30
2019-04-09T13:40:29.394Z,17.30
2019-04-09T13:43:15.338Z,17.00
2019-04-09T13:45:54.692Z,16.60
2019-04-09T13:48:42.768Z,17.10
2019-04-09T13:51:43.113Z,17.20
2019-04-09T13:54:13.372Z,17.40
2019-04-09T13:56:43.246Z,18.10
2019-04-09T13:59:12.663Z,18.70
2019-04-09T14:01:43.672Z,19.00
2019-04-09T14:04:37.995Z,18.60
2019-04-09T14:07:09.713Z,18.10
2019-04-09T14:09:39.095Z,18.00
2019-04-09T14:12:08.487Z,18.10
2019-04-09T14:14:38.592Z,17.20
2019-04-09T14:17:07.924Z,17.10
2019-04-09T14:19:50.953Z,17.00
2019-04-09T14:22:12.086Z,17.20
2019-04-09T14:24:41.536Z,17.40
2019-04-09T14:27:11.958Z,18.10
2019-04-09T14:29:41.611Z,18.60
2019-04-09T14:32:11.920Z,18.90
2019-04-09T14:34:41.501Z,19.40
2019-04-09T14:37:11.893Z,19.20
2019-04-09T14:39:42.436Z,19.60
2019-04-09T14:42:12.936Z,19.90
2019-04-09T14:44:42.420Z,19.90
2019-04-09T14:47:11.736Z,20.10
2019-04-09T14:49:41.361Z,20.30
2019-04-09T14:52:12.037Z,20.10
2019-04-09T14:54:41.635Z,19.30
2019-04-09T14:57:10.970Z,19.80
2019-04-09T14:59:40.413Z,20.00
2019-04-09T15:02:09.872Z,20.30
2019-04-09T15:04:39.570Z,20.10
2019-04-09T15:07:09.196Z,20.00
2019-04-09T15:09:39.215Z,19.70
2019-04-09T15:12:08.883Z,19.60
2019-04-09T15:14:40.245Z,19.20
2019-04-09T15:17:09.874Z,19.20
2019-04-09T15:19:39.529Z,18.90
2019-04-09T15:22:16.178Z,19.00
2019-04-09T15:24:46.670Z,18.70
2019-04-09T15:27:16.084Z,18.40
2019-04-09T15:29:45.755Z,18.50
2019-04-09T15:32:15.212Z,18.60
2019-04-09T15:34:44.588Z,18.00
2019-04-09T15:37:14.063Z,18.10
2019-04-09T15:39:43.674Z,18.20
2019-04-09T15:42:13.806Z,18.20
2019-04-09T15:44:43.425Z,18.00
2019-04-09T15:47:12.796Z,18.00
2019-04-09T15:49:42.275Z,18.10
2019-04-09T15:52:11.645Z,18.20
2019-04-09T15:54:41.047Z,18.20
2019-04-09T15:57:11.086Z,18.10
2019-04-09T15:59:40.599Z,18.20
2019-04-09T16:02:10.112Z,18.20
2019-04-09T16:04:40.008Z,18.10
2019-04-09T16:07:09.491Z,18.10
2019-04-09T16:09:39.028Z,17.90
2019-04-09T16:12:08.575Z,18.00
2019-04-09T16:14:38.407Z,17.80
2019-04-09T16:17:08.758Z,17.40
2019-04-09T16:19:39.422Z,17.00
2019-04-09T16:22:09.313Z,16.70
2019-04-09T16:24:38.705Z,16.60
2019-04-09T16:27:08.077Z,16.50
2019-04-09T16:29:37.726Z,16.50
2019-04-09T16:32:07.298Z,16.50
2019-04-09T16:34:36.689Z,16.10
2019-04-09T16:37:11.494Z,15.90
2019-04-09T16:39:37.953Z,15.50
2019-04-09T16:42:08.269Z,15.20
2019-04-09T16:44:51.787Z,15.00
2019-04-09T16:47:09.453Z,14.70
2019-04-09T16:49:39.387Z,14.20
2019-04-09T16:52:09.592Z,14.20
2019-04-09T16:54:38.973Z,14.00
2019-04-09T16:57:08.858Z,13.90
2019-04-09T16:59:38.482Z,13.80
2019-04-09T17:02:08.012Z,13.80
2019-04-09T17:04:37.726Z,13.70
2019-04-09T17:07:07.300Z,13.60
2019-04-09T17:09:38.695Z,13.60
2019-04-09T17:12:10.447Z,13.50
2019-04-09T17:14:38.977Z,13.50
2019-04-09T17:17:09.065Z,13.40
2019-04-09T17:19:39.431Z,13.30
2019-04-09T17:22:08.759Z,13.20
2019-04-09T17:24:39.105Z,13.10
2019-04-09T17:27:09.554Z,13.00
2019-04-09T17:29:39.394Z,12.80
2019-04-09T17:32:10.153Z,12.70
2019-04-09T17:34:40.794Z,12.60
2019-04-09T17:37:11.352Z,12.50
2019-04-09T17:39:41.632Z,12.40
2019-04-09T17:42:13.055Z,12.40
2019-04-09T17:44:42.362Z,12.30
2019-04-09T17:47:11.940Z,12.20
2019-04-09T17:49:41.749Z,12.10
2019-04-09T17:52:11.542Z,12.00
2019-04-09T17:54:41.949Z,11.90
2019-04-09T17:57:11.597Z,11.90
2019-04-09T17:59:41.591Z,11.80
2019-04-09T18:02:11.764Z,11.70
2019-04-09T18:04:47.994Z,11.60
2019-04-09T18:07:16.007Z,11.50
2019-04-09T18:09:47.537Z,11.40
2019-04-09T18:12:18.801Z,11.30
2019-04-09T18:14:49.825Z,11.30
2019-04-09T18:17:20.043Z,11.20
2019-04-09T18:19:49.630Z,11.10
2019-04-09T18:22:19.341Z,11.00
2019-04-09T18:24:51.285Z,10.90
2019-04-09T18:27:21.284Z,10.80
2019-04-09T18:29:51.645Z,10.70
2019-04-09T18:32:21.151Z,10.60
2019-04-09T18:34:55.601Z,10.60
2019-04-09T18:37:23.766Z,10.50
2019-04-09T18:39:54.153Z,10.40
2019-04-09T18:42:23.746Z,10.30
2019-04-09T18:44:55.767Z,10.20
2019-04-09T18:47:24.225Z,10.20
2019-04-09T18:49:54.619Z,10.10
2019-04-09T18:52:24.992Z,10.00
2019-04-09T18:54:54.595Z,9.90
2019-04-09T18:57:24.083Z,9.90
2019-04-09T18:59:55.653Z,9.80
2019-04-09T19:02:25.278Z,9.70
2019-04-09T19:05:03.840Z,9.70
2019-04-09T19:07:26.596Z,9.60
2019-04-09T19:09:56.675Z,9.50
2019-04-09T19:12:26.791Z,9.50
2019-04-09T19:14:56.583Z,9.40
2019-04-09T19:17:26.752Z,9.30
2019-04-09T19:19:56.519Z,9.30
2019-04-09T19:22:25.957Z,9.20
2019-04-09T19:24:55.673Z,9.20
2019-04-09T19:27:25.735Z,9.10
2019-04-09T19:29:55.341Z,9.00
2019-04-09T19:32:25.233Z,9.10
2019-04-09T19:34:54.781Z,9.10
2019-04-09T19:37:24.249Z,9.10
2019-04-09T19:40:22.379Z,9.10
2019-04-09T19:42:52.269Z,9.00
2019-04-09T19:45:25.389Z,9.00
2019-04-09T19:47:54.802Z,9.00
2019-04-09T19:50:24.243Z,9.00
2019-04-09T19:52:53.810Z,8.90
2019-04-09T19:55:24.468Z,8.80
2019-04-09T19:57:55.960Z,8.80
2019-04-09T20:00:25.530Z,8.90
2019-04-09T20:02:57.179Z,8.90
2019-04-09T20:05:34.640Z,8.90
2019-04-09T20:07:58.647Z,8.80
2019-04-09T20:10:50.856Z,8.70
2019-04-09T20:13:21.811Z,8.70
2019-04-09T20:15:51.320Z,8.60
2019-04-09T20:18:21.680Z,8.50
2019-04-09T20:20:51.510Z,8.40
2019-04-09T20:23:24.202Z,8.40
2019-04-09T20:25:55.725Z,8.40
2019-04-09T20:28:26.262Z,8.30
2019-04-09T20:30:56.561Z,8.20
2019-04-09T20:33:26.089Z,8.20
2019-04-09T20:35:55.643Z,8.10
2019-04-09T20:38:25.047Z,8.00
2019-04-09T20:40:54.834Z,8.00
2019-04-09T20:43:24.718Z,7.90
2019-04-09T20:45:55.302Z,7.80
2019-04-09T20:48:25.647Z,7.70
2019-04-09T20:50:55.076Z,7.70
2019-04-09T20:53:25.481Z,7.60
2019-04-09T20:55:56.120Z,7.50
2019-04-09T20:58:26.529Z,7.40
2019-04-09T21:01:18.748Z,7.30
2019-04-09T21:04:02.117Z,7.30
2019-04-09T21:06:28.682Z,7.20
2019-04-09T21:08:58.107Z,7.20
2019-04-09T21:11:28.507Z,7.10
2019-04-09T21:13:58.059Z,7.10
2019-04-09T21:16:27.579Z,7.00
2019-04-09T21:18:58.134Z,7.00
2019-04-09T21:21:27.570Z,7.00
2019-04-09T21:23:57.284Z,6.90
2019-04-09T21:26:26.738Z,6.90
2019-04-09T21:28:56.026Z,6.80
2019-04-09T21:31:25.411Z,6.80
2019-04-09T21:33:55.044Z,6.70
2019-04-09T21:36:25.011Z,6.70
2019-04-09T21:38:54.382Z,6.60
2019-04-09T21:41:24.192Z,6.60
2019-04-09T21:43:53.690Z,6.60
2019-04-09T21:46:23.561Z,6.60
2019-04-09T21:48:53.665Z,6.50
2019-04-09T21:51:23.791Z,6.50
2019-04-09T21:53:54.323Z,6.40
2019-04-09T21:56:23.891Z,6.40
2019-04-09T21:58:53.362Z,6.40
2019-04-09T22:01:23.097Z,6.30
2019-04-09T22:03:52.728Z,6.30
2019-04-09T22:06:27.757Z,6.20
2019-04-09T22:08:54.329Z,6.20
2019-04-09T22:11:24.572Z,6.10
2019-04-09T22:13:54.016Z,6.10
2019-04-09T22:16:24.228Z,6.00
2019-04-09T22:18:54.371Z,6.00
2019-04-09T22:21:23.738Z,5.90
2019-04-09T22:23:55.097Z,5.90
2019-04-09T22:26:24.105Z,5.80
2019-04-09T22:28:53.541Z,5.80
2019-04-09T22:31:23.851Z,5.80
2019-04-09T22:33:53.287Z,5.70
2019-04-09T22:36:30.898Z,5.70
2019-04-09T22:38:53.763Z,5.60
2019-04-09T22:41:23.078Z,5.60
2019-04-09T22:43:53.251Z,5.50
2019-04-09T22:46:22.862Z,5.50
2019-04-09T22:48:52.859Z,5.40
2019-04-09T22:51:23.042Z,5.40
2019-04-09T22:53:52.691Z,5.40
2019-04-09T22:56:22.880Z,5.30
2019-04-09T22:58:53.293Z,5.30
2019-04-09T23:01:30.674Z,5.20
2019-04-09T23:04:13.771Z,5.20
2019-04-09T23:07:02.048Z,5.10
2019-04-09T23:09:51.270Z,5.10
2019-04-09T23:12:34.923Z,5.00
2019-04-09T23:15:07.185Z,5.00
2019-04-09T23:17:36.454Z,4.90
2019-04-09T23:20:06.185Z,4.90
2019-04-09T23:22:35.508Z,4.80
2019-04-09T23:25:04.903Z,4.80
2019-04-09T23:27:34.636Z,4.70
2019-04-09T23:30:04.339Z,4.70
2019-04-09T23:32:33.913Z,4.60
2019-04-09T23:35:03.262Z,4.60
2019-04-09T23:37:32.675Z,4.50
2019-04-09T23:40:02.757Z,4.50
2019-04-09T23:42:32.856Z,4.40
2019-04-09T23:45:02.318Z,4.30
2019-04-09T23:47:31.675Z,4.30
2019-04-09T23:50:01.147Z,4.20
2019-04-09T23:52:30.547Z,4.20
2019-04-09T23:55:00.516Z,4.20
2019-04-09T23:57:30.797Z,4.10
